Time;durP1;ratioP1;P1;durP2;ratioP2;P2;SDS_P1;SDS_P2;PMS_P1;PMS_P2;Temp;Humidity;BMP_temperature;BMP_pressure;BME280_temperature;BME280_humidity;BME280_pressure;Samples;Min_cycle;Max_cycle;Signal;HPM_P1;HPM_P2
2022/07/29 00:02:13;;;;;;;;;9.33;7.67;;;;;22.43;33.67;101285.63;5082144;27;70337;-67
2022/07/29 00:04:38;;;;;;;;;7.67;7.00;;;;;22.40;33.34;101294.03;5082200;27;67709;-67
2022/07/29 00:07:04;;;;;;;;;4.33;4.33;;;;;22.36;33.39;101282.63;5082954;27;45491;-67
2022/07/29 00:09:30;;;;;;;;;7.33;6.00;;;;;22.33;34.12;101285.56;5081866;27;71213;-66
2022/07/29 00:11:59;;;;;;;;;7.33;7.33;;;;;22.29;33.81;101273.31;5082694;27;45510;-67
2022/07/29 00:14:24;;;;;;;;;6.33;6.33;;;;;22.28;34.42;101277.88;5083041;27;45389;-66
2022/07/29 00:16:50;;;;;;;;;7.00;7.00;;;;;22.24;34.12;101270.16;5081986;27;65762;-66
2022/07/29 00:19:15;;;;;;;;;8.33;8.33;;;;;22.21;34.09;101268.59;5081859;27;69946;-67
2022/07/29 00:21:40;;;;;;;;;11.00;9.00;;;;;22.19;33.94;101264.31;5081695;27;71801;-67
2022/07/29 00:24:06;;;;;;;;;6.00;6.00;;;;;22.16;34.38;101268.16;5081987;27;67065;-67
2022/07/29 00:26:32;;;;;;;;;8.33;7.33;;;;;22.13;33.92;101265.75;5082302;27;45339;-67
2022/07/29 00:29:01;;;;;;;;;8.33;8.00;;;;;22.11;34.35;101263.19;5082473;27;46373;-67
2022/07/29 00:31:27;;;;;;;;;6.00;5.67;;;;;22.10;34.61;101264.19;5082398;27;45532;-66
2022/07/29 00:33:52;;;;;;;;;6.67;6.67;;;;;22.08;34.20;101257.19;5082599;27;45351;-66
2022/07/29 00:36:18;;;;;;;;;6.67;6.67;;;;;22.07;34.22;101258.19;5082409;28;45375;-66
2022/07/29 00:38:45;;;;;;;;;7.67;5.67;;;;;22.04;34.37;101258.47;5081486;27;73520;-67
2022/07/29 00:41:11;;;;;;;;;8.00;7.00;;;;;22.02;34.04;101257.75;5082042;27;45484;-67
2022/07/29 00:43:36;;;;;;;;;6.67;6.67;;;;;21.99;34.62;101253.47;5082579;27;45271;-66
2022/07/29 00:46:02;;;;;;;;;6.33;5.00;;;;;21.95;34.85;101258.34;5082444;27;45619;-67
2022/07/29 00:48:27;;;;;;;;;6.33;5.00;;;;;21.93;34.92;101257.59;5081204;27;68045;-66
2022/07/29 00:50:52;;;;;;;;;4.00;4.00;;;;;21.92;34.27;101258.59;5080426;27;67651;-67
2022/07/29 00:53:19;;;;;;;;;4.67;4.67;;;;;21.90;34.53;101257.91;5081491;28;63190;-67
2022/07/29 00:55:45;;;;;;;;;4.67;4.67;;;;;21.89;34.94;101255.31;5080085;28;45467;-67
2022/07/29 00:58:12;;;;;;;;;7.00;6.33;;;;;21.85;35.08;101257.47;5081320;27;70170;-66
2022/07/29 01:00:37;;;;;;;;;5.67;5.00;;;;;21.83;35.16;101251.31;5082095;27;45532;-66
2022/07/29 01:03:02;;;;;;;;;6.00;5.67;;;;;21.81;34.58;101256.00;5081282;27;65636;-66
2022/07/29 01:05:28;;;;;;;;;5.67;5.67;;;;;21.82;34.61;101260.44;5082161;27;45489;-66
2022/07/29 01:07:55;;;;;;;;;7.67;7.00;;;;;21.83;34.57;101251.31;5081659;27;46244;-67
2022/07/29 01:10:21;;;;;;;;;9.00;7.00;;;;;21.84;35.00;101250.31;5081733;27;45416;-67
2022/07/29 01:12:49;;;;;;;;;7.00;7.00;;;;;21.83;35.37;101248.59;5082218;27;45305;-67
2022/07/29 01:15:14;;;;;;;;;6.33;6.33;;;;;21.77;34.93;101250.03;5081979;27;45446;-67
2022/07/29 01:17:50;;;;;;;;;7.00;7.00;;;;;21.72;35.39;101244.19;5080769;28;75596;-67
2022/07/29 01:20:36;;;;;;;;;9.33;8.00;;;;;21.66;35.29;101250.13;5080538;28;45357;-67
2022/07/29 01:23:31;;;;;;;;;8.00;6.33;;;;;21.62;35.85;101249.56;5081700;27;45483;-67
2022/07/29 01:26:12;;;;;;;;;7.00;7.00;;;;;21.63;35.91;101255.84;5080297;28;45388;-67
2022/07/29 01:28:53;;;;;;;;;9.00;6.00;;;;;21.63;36.49;101256.69;5080166;28;45346;-67
2022/07/29 01:31:31;;;;;;;;;8.33;8.33;;;;;21.61;35.82;101255.94;5081458;28;45255;-67
2022/07/29 01:33:59;;;;;;;;;7.67;7.00;;;;;21.63;36.36;101253.13;5080574;28;45356;-67
2022/07/29 01:36:36;;;;;;;;;7.67;7.67;;;;;21.64;36.41;101255.69;5080256;28;45564;-66
2022/07/29 01:39:19;;;;;;;;;6.00;6.00;;;;;21.65;36.30;101256.53;5080184;28;47776;-66
2022/07/29 01:41:53;;;;;;;;;8.33;7.33;;;;;21.64;36.67;101254.81;5081296;27;45377;-66
2022/07/29 01:44:23;;;;;;;;;7.00;7.00;;;;;21.60;37.08;101254.25;5081470;27;45358;-66
2022/07/29 01:46:52;;;;;;;;;9.33;8.33;;;;;21.56;36.77;101246.53;5063333;28;45396;-65
2022/07/29 01:49:22;;;;;;;;;9.67;8.00;;;;;21.49;36.78;101249.75;5081105;27;46324;-67
2022/07/29 01:51:51;;;;;;;;;11.33;8.33;;;;;21.46;37.32;101249.19;5081636;27;45408;-66
2022/07/29 01:54:32;;;;;;;;;9.67;8.67;;;;;21.42;37.49;101248.63;5079941;28;45375;-67
2022/07/29 01:56:59;;;;;;;;;10.33;10.33;;;;;21.39;37.20;101258.84;5081171;27;45393;-66
2022/07/29 01:59:25;;;;;;;;;9.33;9.33;;;;;21.35;37.49;101252.00;5080960;27;45444;-66
2022/07/29 02:01:54;;;;;;;;;10.67;10.33;;;;;21.30;38.00;101257.81;5078899;28;45372;-66
2022/07/29 02:04:20;;;;;;;;;10.33;9.67;;;;;21.25;38.11;101255.53;5080042;28;45385;-66
2022/07/29 02:06:48;;;;;;;;;11.67;10.00;;;;;21.19;38.18;101257.91;5081123;27;45243;-66
2022/07/29 02:09:15;;;;;;;;;6.00;6.00;;;;;21.11;38.74;101253.19;5079589;28;45457;-66
2022/07/29 02:11:53;;;;;;;;;8.67;8.00;;;;;21.03;38.13;101259.25;5080813;27;45495;-66
2022/07/29 02:14:20;;;;;;;;;7.33;7.33;;;;;20.95;38.76;101268.03;5081163;27;45431;-67
2022/07/29 02:16:47;;;;;;;;;7.67;7.67;;;;;20.91;38.76;101271.13;5079795;28;45447;-67
2022/07/29 02:19:13;;;;;;;;;8.00;8.00;;;;;20.87;38.74;101273.25;5079576;28;46212;-67
2022/07/29 02:21:39;;;;;;;;;10.33;8.67;;;;;20.85;38.48;101269.81;5079871;28;68589;-66
2022/07/29 02:24:05;;;;;;;;;10.67;8.00;;;;;20.84;38.36;101267.25;5080027;27;66350;-67
2022/07/29 02:26:32;;;;;;;;;9.67;9.67;;;;;20.82;39.12;101270.94;5080510;27;45308;-66
2022/07/29 02:28:59;;;;;;;;;5.67;4.67;;;;;20.80;38.69;101275.59;5078950;28;57861;-67
2022/07/29 02:31:26;;;;;;;;;10.33;6.33;;;;;20.78;38.71;101266.78;5080521;27;45152;-67
2022/07/29 02:33:52;;;;;;;;;7.33;7.33;;;;;20.76;38.85;101267.91;5079491;28;45357;-67
2022/07/29 02:36:21;;;;;;;;;6.67;6.67;;;;;20.75;38.70;101279.72;5080549;27;45386;-66
2022/07/29 02:38:55;;;;;;;;;9.00;9.00;;;;;20.72;39.24;101271.88;5079273;28;46382;-66
2022/07/29 02:41:24;;;;;;;;;8.33;8.33;;;;;20.72;39.48;101274.56;5079203;28;45409;-66
2022/07/29 02:43:54;;;;;;;;;7.00;7.00;;;;;20.70;38.97;101271.13;5079546;28;45379;-66
2022/07/29 02:46:34;;;;;;;;;7.33;7.33;;;;;20.67;39.38;101275.78;5079361;28;45639;-67
2022/07/29 02:49:16;;;;;;;;;9.00;8.00;;;;;20.67;39.32;101283.88;5079089;28;45375;-66
2022/07/29 02:51:51;;;;;;;;;7.33;7.33;;;;;20.64;39.36;101280.59;5079097;28;45647;-66
2022/07/29 02:54:51;;;;;;;;;7.00;7.00;;;;;20.60;39.87;101282.69;5079422;28;45410;-66
2022/07/29 02:57:22;;;;;;;;;7.67;7.00;;;;;20.51;40.16;101275.38;5066993;27;45502;-66
2022/07/29 02:59:51;;;;;;;;;10.00;8.00;;;;;20.44;39.73;101276.88;5061975;28;47681;-66
2022/07/29 03:02:17;;;;;;;;;8.00;8.00;;;;;20.39;40.23;101277.28;5079035;28;45475;-66
2022/07/29 03:04:43;;;;;;;;;8.67;7.00;;;;;20.34;40.26;101276.81;5080071;27;50797;-66
2022/07/29 03:07:11;;;;;;;;;9.00;7.67;;;;;20.27;40.95;101276.47;5079426;27;60891;-66
2022/07/29 03:09:36;;;;;;;;;8.33;7.00;;;;;20.22;40.03;101280.53;5079988;27;45318;-66
2022/07/29 03:12:02;;;;;;;;;8.00;8.00;;;;;20.19;40.83;101276.22;5079763;27;49539;-66
2022/07/29 03:14:28;;;;;;;;;5.00;5.00;;;;;20.15;40.44;101278.34;5082474;28;45399;-66
2022/07/29 03:16:53;;;;;;;;;7.00;7.00;;;;;20.13;40.86;101285.72;5082517;28;45368;-66
2022/07/29 03:19:20;;;;;;;;;8.00;7.67;;;;;20.13;40.69;101282.16;5083040;27;64265;-67
2022/07/29 03:21:45;;;;;;;;;9.67;8.00;;;;;20.11;40.91;101282.28;5083445;27;45438;-66
2022/07/29 03:24:27;;;;;;;;;7.67;6.00;;;;;20.10;40.54;101293.19;5083904;27;45381;-67
2022/07/29 03:26:52;;;;;;;;;7.00;6.33;;;;;20.10;40.76;101293.19;5083666;27;45548;-67
2022/07/29 03:29:17;;;;;;;;;4.00;4.00;;;;;20.08;41.12;101284.41;5081320;28;70002;-67
2022/07/29 03:31:43;;;;;;;;;6.67;6.67;;;;;20.06;40.73;101289.03;5082462;27;70009;-63
2022/07/29 03:34:08;;;;;;;;;9.00;6.33;;;;;20.06;40.52;101278.25;5082882;27;64963;-67
2022/07/29 03:36:34;;;;;;;;;6.67;6.67;;;;;20.08;40.87;101282.53;5082675;27;65897;-67
2022/07/29 03:39:00;;;;;;;;;10.00;7.67;;;;;20.11;40.62;101281.44;5083263;27;46134;-67
2022/07/29 03:41:25;;;;;;;;;6.67;6.67;;;;;20.12;41.27;101283.16;5081996;28;45477;-67
2022/07/29 03:43:51;;;;;;;;;7.67;7.00;;;;;20.10;40.70;101285.97;5081414;28;64932;-67
2022/07/29 03:46:17;;;;;;;;;5.33;5.33;;;;;20.10;41.20;101287.81;5081222;28;67063;-66
2022/07/29 03:48:46;;;;;;;;;10.00;8.00;;;;;20.07;40.85;101294.31;5081841;28;49439;-67
2022/07/29 03:51:12;;;;;;;;;6.67;6.67;;;;;20.04;40.99;101286.47;5083174;27;45406;-67
2022/07/29 03:53:37;;;;;;;;;7.00;7.00;;;;;20.01;41.26;101284.00;5083216;27;45605;-67
2022/07/29 03:56:04;;;;;;;;;7.00;7.00;;;;;19.99;41.35;101292.25;5082896;27;45216;-67
2022/07/29 03:58:30;;;;;;;;;7.00;7.00;;;;;19.98;41.19;101289.69;5083133;27;46896;-67
2022/07/29 04:00:56;;;;;;;;;8.67;6.67;;;;;19.94;41.69;101291.75;5081074;28;66210;-67
2022/07/29 04:03:22;;;;;;;;;7.00;6.00;;;;;19.91;40.94;101294.72;5081924;28;45457;-67
2022/07/29 04:05:58;;;;;;;;;4.33;4.33;;;;;19.86;41.35;101293.41;5083048;27;45357;-68
2022/07/29 04:08:23;;;;;;;;;6.67;6.67;;;;;19.78;41.00;101302.94;5082422;27;46283;-67
2022/07/29 04:10:49;;;;;;;;;6.33;6.33;;;;;19.76;41.27;101298.63;5081730;27;69320;-68
2022/07/29 04:13:15;;;;;;;;;5.00;5.00;;;;;19.74;40.88;101304.16;5081830;28;45449;-67
2022/07/29 04:15:40;;;;;;;;;7.67;6.67;;;;;19.75;41.25;101303.19;5081995;27;62013;-67
2022/07/29 04:18:05;;;;;;;;;6.67;5.33;;;;;19.77;41.17;101305.75;5081645;27;72784;-67
2022/07/29 04:20:31;;;;;;;;;5.00;5.00;;;;;19.79;41.17;101307.34;5082860;27;45425;-68
2022/07/29 04:22:56;;;;;;;;;7.00;6.00;;;;;19.81;41.03;101307.22;5082123;27;58720;-68
2022/07/29 04:25:21;;;;;;;;;6.33;6.33;;;;;19.83;41.38;101294.50;5082371;27;45550;-68
2022/07/29 04:28:02;;;;;;;;;7.00;7.00;;;;;19.88;41.44;101302.22;5082587;27;45274;-67
2022/07/29 04:30:28;;;;;;;;;6.67;6.67;;;;;19.87;41.13;101295.97;5082495;28;45482;-68
2022/07/29 04:32:53;;;;;;;;;6.00;6.00;;;;;19.88;41.53;101302.22;5082698;28;45476;-68
2022/07/29 04:35:19;;;;;;;;;8.67;7.00;;;;;19.88;41.07;101307.59;5082368;27;46236;-67
2022/07/29 04:37:45;;;;;;;;;7.33;7.33;;;;;19.87;41.64;101308.59;5081277;27;75642;-68
2022/07/29 04:40:11;;;;;;;;;8.67;8.67;;;;;19.87;41.50;101317.56;5082071;27;48696;-67
2022/07/29 04:42:37;;;;;;;;;6.67;6.67;;;;;19.88;41.62;101313.88;5082515;27;45177;-68
2022/07/29 04:45:02;;;;;;;;;6.33;6.33;;;;;19.92;41.34;101309.94;5082533;28;45377;-68
2022/07/29 04:47:27;;;;;;;;;9.33;7.00;;;;;19.96;41.74;101308.72;5082053;27;46767;-68
2022/07/29 04:49:53;;;;;;;;;6.00;6.00;;;;;19.96;41.70;101314.09;5081451;27;70310;-68
2022/07/29 04:52:18;;;;;;;;;9.33;9.33;;;;;19.97;41.57;101314.94;5081342;27;64599;-68
2022/07/29 04:54:44;;;;;;;;;7.33;7.33;;;;;19.96;41.65;101319.50;5081399;27;64520;-68
2022/07/29 04:57:09;;;;;;;;;7.33;7.33;;;;;19.96;41.67;101324.91;5082273;27;46944;-68
2022/07/29 04:59:34;;;;;;;;;8.00;8.00;;;;;20.00;41.72;101323.66;5081478;27;66802;-68
2022/07/29 05:01:59;;;;;;;;;5.00;4.33;;;;;20.06;41.75;101325.00;5081379;27;64315;-65
2022/07/29 05:04:25;;;;;;;;;8.00;7.33;;;;;20.12;41.83;101319.09;5082075;27;45446;-68
2022/07/29 05:06:50;;;;;;;;;6.00;6.00;;;;;20.18;41.48;101325.84;5081613;27;46208;-66
2022/07/29 05:09:15;;;;;;;;;6.33;6.33;;;;;20.25;41.72;101328.91;5081019;28;67115;-68
2022/07/29 05:11:41;;;;;;;;;6.33;6.33;;;;;20.30;41.93;101332.06;5081952;27;45393;-68
2022/07/29 05:14:06;;;;;;;;;5.33;5.33;;;;;20.37;41.59;101327.84;5082102;27;45398;-68
2022/07/29 05:16:32;;;;;;;;;7.00;7.00;;;;;20.46;41.41;101323.53;5080861;27;73124;-68
2022/07/29 05:18:57;;;;;;;;;7.33;6.67;;;;;20.54;41.52;101322.91;5081675;27;45331;-66
2022/07/29 05:21:22;;;;;;;;;7.67;7.67;;;;;20.61;41.35;101324.97;5081177;27;58819;-67
2022/07/29 05:23:47;;;;;;;;;9.00;7.00;;;;;20.69;40.84;101324.31;5081708;27;45704;-67
2022/07/29 05:26:13;;;;;;;;;5.67;5.67;;;;;20.73;41.26;101325.78;5080711;27;67714;-67
2022/07/29 05:28:38;;;;;;;;;6.00;6.00;;;;;20.77;40.84;101326.41;5080286;27;73289;-66
2022/07/29 05:31:04;;;;;;;;;7.67;4.67;;;;;20.80;40.93;101335.06;5081577;27;45630;-67
2022/07/29 05:33:29;;;;;;;;;4.00;4.00;;;;;20.92;41.04;101326.91;5080873;27;64602;-67
2022/07/29 05:35:54;;;;;;;;;5.33;5.33;;;;;20.98;41.05;101327.25;5080618;27;46528;-68
2022/07/29 05:38:20;;;;;;;;;7.67;7.00;;;;;21.04;40.83;101325.00;5081181;27;45487;-67
2022/07/29 05:40:46;;;;;;;;;5.67;5.67;;;;;21.05;41.00;101322.16;5080826;27;55805;-68
2022/07/29 05:43:11;;;;;;;;;8.33;7.00;;;;;21.00;40.87;101332.50;5080484;27;64342;-68
2022/07/29 05:45:38;;;;;;;;;9.00;7.00;;;;;20.95;40.50;101334.75;5080145;27;73524;-68
2022/07/29 05:48:03;;;;;;;;;7.67;6.67;;;;;20.95;40.95;101335.63;5081186;27;45402;-68
2022/07/29 05:50:29;;;;;;;;;7.00;5.33;;;;;20.91;40.74;101336.88;5080528;27;65092;-67
2022/07/29 05:52:54;;;;;;;;;6.00;5.33;;;;;20.90;40.72;101348.69;5080260;27;67083;-67
2022/07/29 05:55:19;;;;;;;;;4.67;4.67;;;;;20.89;40.39;101341.56;5080705;27;51057;-67
2022/07/29 05:57:45;;;;;;;;;7.00;6.00;;;;;20.89;40.82;101346.97;5080004;27;71164;-67
2022/07/29 06:00:11;;;;;;;;;8.00;8.00;;;;;20.90;41.03;101345.97;5081313;27;45446;-68
2022/07/29 06:02:36;;;;;;;;;7.67;6.00;;;;;20.94;40.45;101346.56;5081031;27;45506;-68
2022/07/29 06:05:02;;;;;;;;;6.33;5.33;;;;;20.94;40.62;101342.00;5080135;27;70985;-67
2022/07/29 06:07:27;;;;;;;;;5.67;5.33;;;;;20.98;40.49;101345.31;5079638;28;45272;-68
2022/07/29 06:09:53;;;;;;;;;7.00;6.00;;;;;21.00;40.81;101346.03;5080672;27;45409;-68
2022/07/29 06:12:19;;;;;;;;;5.00;4.33;;;;;21.05;40.81;101346.50;5080236;27;62558;-68
2022/07/29 06:14:45;;;;;;;;;3.33;3.33;;;;;21.12;40.55;101345.00;5080864;27;47358;-67
2022/07/29 06:17:11;;;;;;;;;7.33;5.67;;;;;21.21;40.57;101356.88;5080788;27;45437;-67
2022/07/29 06:19:37;;;;;;;;;7.00;6.00;;;;;21.29;39.80;101354.34;5080886;27;45363;-68
2022/07/29 06:22:03;;;;;;;;;5.00;5.00;;;;;21.36;39.89;101351.13;5079658;28;45421;-67
2022/07/29 06:24:28;;;;;;;;;6.00;6.00;;;;;21.41;39.49;101362.38;5080462;27;46007;-67
2022/07/29 06:26:54;;;;;;;;;6.33;5.00;;;;;21.48;39.97;101363.56;5079736;27;58216;-67
2022/07/29 06:29:19;;;;;;;;;7.67;6.67;;;;;21.53;39.73;101360.47;5080664;27;45282;-67
2022/07/29 06:31:44;;;;;;;;;8.67;7.33;;;;;21.59;39.64;101363.50;5080324;27;45528;-67
2022/07/29 06:34:10;;;;;;;;;3.67;3.67;;;;;;;;5080493;27;46084;-68
2022/07/29 06:36:36;;;;;;;;;5.33;5.00;;;;;21.75;38.93;101357.59;5080497;27;45439;-67
2022/07/29 06:39:06;;;;;;;;;7.67;6.00;;;;;21.89;39.23;101363.59;5080720;28;45653;-67
2022/07/29 06:41:32;;;;;;;;;7.67;7.33;;;;;22.06;39.27;101370.22;5080129;27;45428;-68
2022/07/29 06:43:58;;;;;;;;;7.00;6.33;;;;;22.24;39.11;101363.16;5080106;27;45379;-68
2022/07/29 06:46:24;;;;;;;;;8.33;7.00;;;;;22.41;38.25;101368.91;5080262;27;45172;-68
2022/07/29 06:48:50;;;;;;;;;7.00;6.33;;;;;22.56;38.64;101367.50;5080188;27;45686;-69
2022/07/29 06:51:16;;;;;;;;;7.00;6.00;;;;;22.70;37.67;101365.38;5080281;27;45277;-68
2022/07/29 06:53:41;;;;;;;;;8.00;6.67;;;;;22.84;37.52;101364.94;5080171;27;46237;-68
2022/07/29 06:56:12;;;;;;;;;7.33;5.67;;;;;22.96;37.44;101369.19;5079156;27;70325;-69
2022/07/29 06:58:37;;;;;;;;;6.00;6.00;;;;;23.12;37.08;101370.47;5080553;27;45299;-69
2022/07/29 07:01:05;;;;;;;;;7.00;6.00;;;;;23.24;36.61;101372.03;5080190;27;45452;-69
2022/07/29 07:03:30;;;;;;;;;7.00;6.00;;;;;23.36;36.90;101371.88;5080074;27;47125;-70
2022/07/29 07:05:56;;;;;;;;;5.67;5.67;;;;;23.55;36.59;101379.13;5080044;28;45332;-70
2022/07/29 07:08:22;;;;;;;;;7.67;6.00;;;;;23.72;36.17;101380.19;5079374;27;61175;-70
2022/07/29 07:10:48;;;;;;;;;1.00;0.00;;;;;23.92;35.60;101384.59;5079870;27;45593;-70
2022/07/29 07:13:14;;;;;;;;;3.00;3.00;;;;;24.11;35.50;101382.75;5079639;27;47036;-70
2022/07/29 07:15:39;;;;;;;;;7.00;6.00;;;;;24.28;35.35;101387.38;5079788;27;45397;-69
2022/07/29 07:18:08;;;;;;;;;5.00;5.00;;;;;24.53;35.24;101384.06;5079040;27;64890;-70
2022/07/29 07:20:34;;;;;;;;;5.33;4.00;;;;;24.80;34.65;101383.16;5080300;27;45609;-69
2022/07/29 07:22:59;;;;;;;;;8.67;7.00;;;;;25.09;34.56;101385.59;5079525;27;46180;-71
2022/07/29 07:25:25;;;;;;;;;5.67;5.67;;;;;25.42;33.82;101391.34;5078511;27;73194;-70
2022/07/29 07:27:50;;;;;;;;;6.33;6.00;;;;;25.77;33.44;101388.63;5079841;27;45308;-71
2022/07/29 07:30:16;;;;;;;;;6.67;5.00;;;;;26.14;32.97;101387.47;5078454;27;68696;-72
2022/07/29 07:32:41;;;;;;;;;5.33;5.33;;;;;26.55;31.95;101383.97;5079718;27;46041;-72
2022/07/29 07:35:08;;;;;;;;;3.00;3.00;;;;;26.79;30.97;101388.66;5078786;27;64186;-71
2022/07/29 07:37:33;;;;;;;;;4.33;4.33;;;;;27.10;31.07;101387.09;5079728;27;45513;-72
2022/07/29 07:39:59;;;;;;;;;2.33;2.33;;;;;27.54;31.35;101384.00;5079463;27;45705;-73
2022/07/29 07:42:24;;;;;;;;;6.33;5.67;;;;;28.04;30.42;101392.88;5079653;27;47044;-71
2022/07/29 07:44:50;;;;;;;;;3.00;3.00;;;;;28.58;29.30;101388.47;5079713;28;45433;-70
2022/07/29 07:47:19;;;;;;;;;7.00;6.00;;;;;29.02;29.89;101391.41;5079652;27;45407;-71
2022/07/29 07:49:47;;;;;;;;;5.67;5.67;;;;;29.59;28.77;101385.56;5079615;27;45481;-72
2022/07/29 07:52:13;;;;;;;;;5.67;5.67;;;;;30.18;28.56;101390.16;5079215;27;45370;-70
2022/07/29 07:54:39;;;;;;;;;8.00;7.00;;;;;30.87;27.03;101393.47;5077865;28;45442;-73
2022/07/29 07:57:04;;;;;;;;;5.00;5.00;;;;;31.57;26.44;101391.69;5078550;27;65855;-73
2022/07/29 07:59:29;;;;;;;;;7.00;7.00;;;;;32.29;25.87;101396.94;5080517;27;68891;-72
2022/07/29 08:01:55;;;;;;;;;5.67;5.67;;;;;32.98;25.34;101392.22;5082038;27;70254;-72
2022/07/29 08:04:20;;;;;;;;;4.00;4.00;;;;;33.52;24.16;101395.81;5082817;27;45338;-72
2022/07/29 08:06:45;;;;;;;;;4.00;4.00;;;;;34.11;23.11;101398.59;5082130;27;64693;-71
2022/07/29 08:09:11;;;;;;;;;5.67;4.00;;;;;34.67;21.88;101399.78;5081870;27;65844;-71
2022/07/29 08:11:36;;;;;;;;;4.67;3.00;;;;;34.91;20.52;101398.13;5081668;27;69718;-73
2022/07/29 08:14:01;;;;;;;;;5.00;4.00;;;;;35.02;22.16;101399.34;5082655;27;45427;-70
2022/07/29 08:16:27;;;;;;;;;5.67;5.67;;;;;35.35;21.84;101403.75;5082304;27;55999;-70
2022/07/29 08:18:56;;;;;;;;;4.67;4.67;;;;;35.82;21.88;101402.41;5082538;27;45398;-73
2022/07/29 08:21:23;;;;;;;;;4.00;4.00;;;;;36.43;21.00;101406.94;5082253;27;46275;-70
2022/07/29 08:24:42;;;;;;;;;2.33;2.33;;;;;36.64;20.12;101404.72;5082503;27;45281;-74
2022/07/29 08:26:41;;;;;;;;;2.33;2.33;;;;;36.71;20.19;101408.25;5082045;28;45315;-71
2022/07/29 08:29:06;;;;;;;;;3.00;2.33;;;;;36.71;18.38;101393.53;5082278;27;45454;-70
2022/07/29 08:31:31;;;;;;;;;3.33;2.00;;;;;36.56;19.73;101394.84;5081310;27;67348;-71
2022/07/29 08:33:59;;;;;;;;;5.00;3.33;;;;;36.46;19.16;101397.31;5081461;27;71082;-71
2022/07/29 08:36:25;;;;;;;;;2.67;2.67;;;;;36.29;19.09;101396.28;5082237;27;45480;-72
2022/07/29 08:38:50;;;;;;;;;4.33;3.00;;;;;36.08;19.28;101396.53;5082116;27;45460;-71
2022/07/29 08:41:18;;;;;;;;;4.00;4.00;;;;;36.43;18.86;101389.50;5081904;28;45423;-73
2022/07/29 08:43:44;;;;;;;;;4.00;4.00;;;;;36.97;19.04;101397.81;5082205;27;45266;-73
2022/07/29 08:46:10;;;;;;;;;3.00;3.00;;;;;37.65;19.22;101391.94;5082183;27;45406;-71
2022/07/29 08:48:36;;;;;;;;;3.33;2.67;;;;;38.14;18.30;101384.09;5081076;28;65736;-71
2022/07/29 08:51:01;;;;;;;;;3.00;3.00;;;;;38.58;17.56;101389.09;5082073;27;46062;-73
2022/07/29 08:53:28;;;;;;;;;3.00;3.00;;;;;39.05;17.20;101394.34;5081824;27;45487;-72
2022/07/29 08:55:54;;;;;;;;;3.00;3.00;;;;;39.45;15.73;101394.41;5082104;27;45414;-73
2022/07/29 08:58:20;;;;;;;;;5.33;2.67;;;;;39.85;15.95;101396.91;5082131;27;45434;-71
2022/07/29 09:00:50;;;;;;;;;4.00;4.00;;;;;40.32;16.36;101389.94;5082077;27;45432;-71
2022/07/29 09:03:18;;;;;;;;;1.00;1.00;;;;;40.54;14.94;101391.03;5082025;27;45243;-70
2022/07/29 09:05:45;;;;;;;;;4.00;2.67;;;;;40.71;15.29;101397.28;5080850;28;45387;-72
2022/07/29 09:08:12;;;;;;;;;5.33;2.67;;;;;40.97;15.34;101395.56;5081667;27;45462;-71
2022/07/29 09:10:38;;;;;;;;;2.00;1.67;;;;;41.20;14.80;101392.66;5080027;27;46397;-71
2022/07/29 09:13:03;;;;;;;;;4.00;2.67;;;;;41.21;14.49;101392.38;5079621;28;71609;-71
2022/07/29 09:15:28;;;;;;;;;2.33;2.33;;;;;41.29;14.18;101386.31;5080982;27;67422;-72
2022/07/29 09:17:55;;;;;;;;;4.00;4.00;;;;;41.66;15.16;101390.97;5080920;27;69278;-72
2022/07/29 09:20:23;;;;;;;;;2.00;2.00;;;;;42.03;13.95;101388.34;5081475;27;46169;-71
2022/07/29 09:22:52;;;;;;;;;1.67;1.67;;;;;42.38;13.21;101378.41;5081303;27;45351;-72
2022/07/29 09:25:36;;;;;;;;;3.00;3.00;;;;;42.72;13.81;101378.72;5081149;27;45509;-71
2022/07/29 09:28:18;;;;;;;;;2.00;2.00;;;;;43.00;13.29;101384.84;5081529;27;45350;-71
2022/07/29 09:30:55;;;;;;;;;1.33;1.33;;;;;43.17;12.47;101387.38;5081366;27;46198;-72
2022/07/29 09:33:21;;;;;;;;;0.00;0.00;;;;;42.93;12.55;101390.69;5081293;28;45429;-71
2022/07/29 09:36:04;;;;;;;;;2.00;2.00;;;;;42.86;12.59;101389.34;5081429;27;45304;-71
2022/07/29 09:38:30;;;;;;;;;2.67;2.67;;;;;43.16;12.78;101396.88;5067912;28;45332;-72
2022/07/29 09:40:56;;;;;;;;;1.00;1.00;;;;;43.56;12.83;101392.31;5080895;27;46131;-73
2022/07/29 09:43:22;;;;;;;;;1.33;1.33;;;;;43.71;12.83;101387.75;5081590;27;45411;-73
2022/07/29 09:45:48;;;;;;;;;1.33;1.33;;;;;43.81;13.12;101386.88;5080640;27;62430;-71
2022/07/29 09:48:22;;;;;;;;;1.33;1.00;;;;;44.10;12.09;101379.44;5061240;27;45653;-72
2022/07/29 09:50:49;;;;;;;;;5.00;2.00;;;;;44.37;11.96;101383.78;5060645;28;46249;-72
2022/07/29 09:53:37;;;;;;;;;2.33;2.33;;;;;44.58;11.80;101390.06;5060616;28;45382;-71
2022/07/29 09:56:05;;;;;;;;;2.00;2.00;;;;;44.74;11.79;101392.75;5060541;28;45455;-71
2022/07/29 09:58:33;;;;;;;;;3.00;2.00;;;;;44.84;11.40;101389.88;5060689;28;45419;-71
2022/07/29 10:00:58;;;;;;;;;1.00;1.00;;;;;45.07;11.46;101393.00;5060467;28;46178;-72
2022/07/29 10:03:24;;;;;;;;;1.33;1.33;;;;;45.28;11.78;101399.25;5059622;28;73105;-71
2022/07/29 10:06:05;;;;;;;;;2.00;0.33;;;;;45.26;10.43;101393.94;5060695;28;45342;-73
2022/07/29 10:08:31;;;;;;;;;2.00;2.00;;;;;45.00;11.25;101390.53;5074216;28;45370;-72
2022/07/29 10:11:12;;;;;;;;;2.00;2.00;;;;;45.07;11.45;101393.00;5080590;27;46867;-71
2022/07/29 10:13:38;;;;;;;;;3.00;2.00;;;;;45.24;10.95;101390.59;5080728;27;45358;-71
2022/07/29 10:16:04;;;;;;;;;1.67;1.67;;;;;45.46;10.80;101388.38;5080845;27;45395;-72
2022/07/29 10:18:29;;;;;;;;;3.67;2.33;;;;;45.65;10.99;101394.91;5079840;27;56647;-72
2022/07/29 10:20:55;;;;;;;;;1.00;1.00;;;;;45.68;10.75;101390.66;5079647;27;71068;-70
2022/07/29 10:23:21;;;;;;;;;2.00;2.00;;;;;45.56;10.76;101391.91;5077926;28;70001;-70
2022/07/29 10:25:46;;;;;;;;;0.67;0.67;;;;;45.44;10.86;101394.31;5078198;28;64585;-70
2022/07/29 10:28:12;;;;;;;;;2.67;1.33;;;;;45.29;10.74;101392.50;5080299;27;45594;-71
2022/07/29 10:30:39;;;;;;;;;1.67;1.00;;;;;45.43;11.26;101389.81;5080333;28;46269;-70
2022/07/29 10:33:37;;;;;;;;;1.67;1.67;;;;;45.52;11.03;101390.84;5080559;27;45353;-71
2022/07/29 10:36:05;;;;;;;;;2.00;2.00;;;;;45.78;11.03;101395.28;5080699;27;45381;-71
2022/07/29 10:38:35;;;;;;;;;3.67;2.33;;;;;45.95;10.65;101383.56;5079045;28;45448;-71
2022/07/29 10:41:29;;;;;;;;;3.00;3.00;;;;;46.10;10.42;101388.13;5079925;28;46154;-69
2022/07/29 10:43:58;;;;;;;;;1.33;1.33;;;;;46.13;10.58;101394.00;5080121;27;45183;-70
2022/07/29 10:46:24;;;;;;;;;3.00;2.00;;;;;46.13;10.19;101387.53;5078965;28;45452;-69
2022/07/29 10:49:11;;;;;;;;;2.33;2.33;;;;;45.94;10.09;101384.72;5080202;27;45488;-68
2022/07/29 10:51:59;;;;;;;;;0.00;0.00;;;;;45.70;10.26;101391.19;5078974;28;46244;-70
2022/07/29 10:54:47;;;;;;;;;2.67;2.67;;;;;45.65;10.71;101388.47;5080108;27;45478;-70
2022/07/29 10:57:15;;;;;;;;;1.00;1.00;;;;;45.42;11.10;101390.94;5080028;27;45372;-70
2022/07/29 10:59:41;;;;;;;;;2.67;2.67;;;;;45.75;10.59;101393.91;5080116;27;45349;-69
2022/07/29 11:02:33;;;;;;;;;1.33;1.33;;;;;46.12;10.23;101389.50;5078316;28;47123;-70
2022/07/29 11:04:59;;;;;;;;;3.00;3.00;;;;;46.29;10.20;101390.97;5077317;27;45378;-68
2022/07/29 11:07:25;;;;;;;;;3.00;1.00;;;;;46.21;9.80;101392.47;5079656;27;45333;-68
2022/07/29 11:10:12;;;;;;;;;2.00;2.00;;;;;46.00;10.09;101389.13;5079935;27;45409;-69
2022/07/29 11:12:37;;;;;;;;;3.00;1.00;;;;;46.29;10.17;101386.19;5080020;27;46166;-71
2022/07/29 11:15:05;;;;;;;;;1.00;1.00;;;;;46.39;10.41;101394.44;5079942;28;45332;-69
2022/07/29 11:17:54;;;;;;;;;1.00;1.00;;;;;46.61;9.87;101386.50;5079923;27;45420;-69
2022/07/29 11:20:38;;;;;;;;;1.00;1.00;;;;;46.72;9.30;101388.84;5076213;27;45415;-69
2022/07/29 11:23:29;;;;;;;;;2.67;2.00;;;;;46.85;10.54;101392.03;5079674;27;46446;-69
2022/07/29 11:26:16;;;;;;;;;0.67;0.67;;;;;46.98;10.16;101393.19;5079451;27;45308;-69
2022/07/29 11:29:13;;;;;;;;;1.33;1.33;;;;;47.05;9.84;101388.00;5066303;28;45350;-69
2022/07/29 11:31:51;;;;;;;;;1.00;1.00;;;;;46.84;9.80;101382.72;5078469;28;45329;-69